sensor_id;sensor_type;location;lat;lon;timestamp;temperature;humidity
23703;DHT22;12030;50.376;8.762;2023-05-10T00:02:24;15.40;99.90
23703;DHT22;12030;50.376;8.762;2023-05-10T00:04:49;15.30;99.90
23703;DHT22;12030;50.376;8.762;2023-05-10T00:07:15;15.20;99.90
23703;DHT22;12030;50.376;8.762;2023-05-10T00:09:43;15.20;99.90
23703;DHT22;12030;50.376;8.762;2023-05-10T00:12:09;15.00;99.90
23703;DHT22;12030;50.376;8.762;2023-05-10T00:14:34;14.90;99.90
23703;DHT22;12030;50.376;8.762;2023-05-10T00:17:00;14.90;99.90
23703;DHT22;12030;50.376;8.762;2023-05-10T00:19:26;14.80;99.90
23703;DHT22;12030;50.376;8.762;2023-05-10T00:21:51;14.80;99.90
23703;DHT22;12030;50.376;8.762;2023-05-10T00:24:17;14.70;99.90
23703;DHT22;12030;50.376;8.762;2023-05-10T00:26:42;14.60;99.90
23703;DHT22;12030;50.376;8.762;2023-05-10T00:29:08;14.60;99.90
23703;DHT22;12030;50.376;8.762;2023-05-10T00:31:33;14.60;99.90
23703;DHT22;12030;50.376;8.762;2023-05-10T00:33:59;14.50;99.90
23703;DHT22;12030;50.376;8.762;2023-05-10T00:36:24;14.50;99.90
23703;DHT22;12030;50.376;8.762;2023-05-10T00:38:50;14.50;99.90
23703;DHT22;12030;50.376;8.762;2023-05-10T00:41:15;14.40;99.90
23703;DHT22;12030;50.376;8.762;2023-05-10T00:43:41;14.40;99.90
23703;DHT22;12030;50.376;8.762;2023-05-10T00:46:07;14.30;99.90
23703;DHT22;12030;50.376;8.762;2023-05-10T00:48:32;14.30;99.90
23703;DHT22;12030;50.376;8.762;2023-05-10T00:50:59;14.30;99.90
23703;DHT22;12030;50.376;8.762;2023-05-10T00:53:25;14.20;99.90
23703;DHT22;12030;50.376;8.762;2023-05-10T00:55:50;14.20;99.90
23703;DHT22;12030;50.376;8.762;2023-05-10T00:58:17;14.20;99.90
23703;DHT22;12030;50.376;8.762;2023-05-10T01:00:42;14.20;99.90
23703;DHT22;12030;50.376;8.762;2023-05-10T01:03:10;14.20;99.90
23703;DHT22;12030;50.376;8.762;2023-05-10T01:05:37;14.10;99.90
23703;DHT22;12030;50.376;8.762;2023-05-10T01:08:02;14.20;99.90
23703;DHT22;12030;50.376;8.762;2023-05-10T01:10:28;14.10;99.90
23703;DHT22;12030;50.376;8.762;2023-05-10T01:12:54;14.00;99.90
23703;DHT22;12030;50.376;8.762;2023-05-10T01:15:21;14.00;99.90
23703;DHT22;12030;50.376;8.762;2023-05-10T01:17:47;14.10;99.90
23703;DHT22;12030;50.376;8.762;2023-05-10T01:20:14;14.00;99.90
23703;DHT22;12030;50.376;8.762;2023-05-10T01:25:53;13.90;99.90
23703;DHT22;12030;50.376;8.762;2023-05-10T01:28:37;13.90;99.90
23703;DHT22;12030;50.376;8.762;2023-05-10T01:36:24;13.90;99.90
23703;DHT22;12030;50.376;8.762;2023-05-10T01:38:59;13.90;99.90
23703;DHT22;12030;50.376;8.762;2023-05-10T01:41:47;13.80;99.90
23703;DHT22;12030;50.376;8.762;2023-05-10T01:44:34;13.80;99.90
23703;DHT22;12030;50.376;8.762;2023-05-10T01:47:11;13.80;99.90
23703;DHT22;12030;50.376;8.762;2023-05-10T01:49:42;13.80;99.90
23703;DHT22;12030;50.376;8.762;2023-05-10T01:52:11;13.90;99.90
23703;DHT22;12030;50.376;8.762;2023-05-10T01:54:44;13.80;99.90
23703;DHT22;12030;50.376;8.762;2023-05-10T01:57:15;13.80;99.90
23703;DHT22;12030;50.376;8.762;2023-05-10T01:59:43;13.90;99.90
23703;DHT22;12030;50.376;8.762;2023-05-10T02:02:11;13.90;99.90
23703;DHT22;12030;50.376;8.762;2023-05-10T02:04:39;13.90;99.90
23703;DHT22;12030;50.376;8.762;2023-05-10T02:07:06;13.80;99.90
23703;DHT22;12030;50.376;8.762;2023-05-10T02:09:33;13.90;99.90
23703;DHT22;12030;50.376;8.762;2023-05-10T02:12:01;13.80;99.90
23703;DHT22;12030;50.376;8.762;2023-05-10T02:14:30;13.90;99.90
23703;DHT22;12030;50.376;8.762;2023-05-10T02:16:57;13.90;99.90
23703;DHT22;12030;50.376;8.762;2023-05-10T02:19:24;13.90;99.90
23703;DHT22;12030;50.376;8.762;2023-05-10T02:21:50;13.90;99.90
23703;DHT22;12030;50.376;8.762;2023-05-10T02:24:17;13.90;99.90
23703;DHT22;12030;50.376;8.762;2023-05-10T02:26:44;13.90;99.90
23703;DHT22;12030;50.376;8.762;2023-05-10T02:29:11;13.80;99.90
23703;DHT22;12030;50.376;8.762;2023-05-10T02:31:38;13.80;99.90
23703;DHT22;12030;50.376;8.762;2023-05-10T02:34:06;13.90;99.90
23703;DHT22;12030;50.376;8.762;2023-05-10T02:36:32;13.80;99.90
23703;DHT22;12030;50.376;8.762;2023-05-10T02:38:59;13.80;99.90
23703;DHT22;12030;50.376;8.762;2023-05-10T02:41:27;13.80;99.90
23703;DHT22;12030;50.376;8.762;2023-05-10T02:43:57;13.80;99.90
23703;DHT22;12030;50.376;8.762;2023-05-10T02:46:25;13.80;99.90
23703;DHT22;12030;50.376;8.762;2023-05-10T02:48:50;13.70;99.90
23703;DHT22;12030;50.376;8.762;2023-05-10T02:51:18;13.70;99.90
23703;DHT22;12030;50.376;8.762;2023-05-10T02:53:46;13.80;99.90
23703;DHT22;12030;50.376;8.762;2023-05-10T02:56:16;13.70;99.90
23703;DHT22;12030;50.376;8.762;2023-05-10T02:58:45;13.70;99.90
23703;DHT22;12030;50.376;8.762;2023-05-10T03:01:11;13.70;99.90
23703;DHT22;12030;50.376;8.762;2023-05-10T03:03:37;13.80;99.90
23703;DHT22;12030;50.376;8.762;2023-05-10T03:06:02;13.70;99.90
23703;DHT22;12030;50.376;8.762;2023-05-10T03:08:28;13.70;99.90
23703;DHT22;12030;50.376;8.762;2023-05-10T03:11:09;13.80;99.90
23703;DHT22;12030;50.376;8.762;2023-05-10T03:14:10;13.60;99.90
23703;DHT22;12030;50.376;8.762;2023-05-10T03:16:45;13.80;99.90
23703;DHT22;12030;50.376;8.762;2023-05-10T03:21:41;13.70;99.90
23703;DHT22;12030;50.376;8.762;2023-05-10T03:24:12;13.70;99.90
23703;DHT22;12030;50.376;8.762;2023-05-10T03:26:40;13.70;99.90
23703;DHT22;12030;50.376;8.762;2023-05-10T03:29:08;13.80;99.90
23703;DHT22;12030;50.376;8.762;2023-05-10T03:31:35;13.80;99.90
23703;DHT22;12030;50.376;8.762;2023-05-10T03:34:01;13.80;99.90
23703;DHT22;12030;50.376;8.762;2023-05-10T03:36:26;13.80;99.90
23703;DHT22;12030;50.376;8.762;2023-05-10T03:38:52;13.80;99.90
23703;DHT22;12030;50.376;8.762;2023-05-10T03:41:17;13.80;99.90
23703;DHT22;12030;50.376;8.762;2023-05-10T03:43:43;13.80;99.90
23703;DHT22;12030;50.376;8.762;2023-05-10T03:46:08;13.70;99.90
23703;DHT22;12030;50.376;8.762;2023-05-10T03:48:34;13.70;99.90
23703;DHT22;12030;50.376;8.762;2023-05-10T03:51:00;13.70;99.90
23703;DHT22;12030;50.376;8.762;2023-05-10T03:53:25;13.70;99.90
23703;DHT22;12030;50.376;8.762;2023-05-10T03:55:52;13.70;99.90
23703;DHT22;12030;50.376;8.762;2023-05-10T03:58:17;13.70;99.90
23703;DHT22;12030;50.376;8.762;2023-05-10T04:00:43;13.70;99.90
23703;DHT22;12030;50.376;8.762;2023-05-10T04:03:10;13.60;99.90
23703;DHT22;12030;50.376;8.762;2023-05-10T04:05:36;13.60;99.90
23703;DHT22;12030;50.376;8.762;2023-05-10T04:08:02;13.60;99.90
23703;DHT22;12030;50.376;8.762;2023-05-10T04:10:28;13.60;99.90
23703;DHT22;12030;50.376;8.762;2023-05-10T04:12:54;13.60;99.90
23703;DHT22;12030;50.376;8.762;2023-05-10T04:15:19;13.70;99.90
23703;DHT22;12030;50.376;8.762;2023-05-10T04:17:45;13.70;99.90
23703;DHT22;12030;50.376;8.762;2023-05-10T04:20:11;13.70;99.90
23703;DHT22;12030;50.376;8.762;2023-05-10T04:22:37;13.60;99.90
23703;DHT22;12030;50.376;8.762;2023-05-10T04:25:03;13.60;99.90
23703;DHT22;12030;50.376;8.762;2023-05-10T04:27:30;13.70;99.90
23703;DHT22;12030;50.376;8.762;2023-05-10T04:29:55;13.70;99.90
23703;DHT22;12030;50.376;8.762;2023-05-10T04:32:21;13.60;99.90
23703;DHT22;12030;50.376;8.762;2023-05-10T04:34:47;13.70;99.90
23703;DHT22;12030;50.376;8.762;2023-05-10T04:37:12;13.70;99.90
23703;DHT22;12030;50.376;8.762;2023-05-10T04:39:38;13.70;99.90
23703;DHT22;12030;50.376;8.762;2023-05-10T04:42:03;13.70;99.90
23703;DHT22;12030;50.376;8.762;2023-05-10T04:44:31;13.70;99.90
23703;DHT22;12030;50.376;8.762;2023-05-10T04:46:57;13.70;99.90
23703;DHT22;12030;50.376;8.762;2023-05-10T04:49:22;13.80;99.90
23703;DHT22;12030;50.376;8.762;2023-05-10T04:51:48;13.80;99.90
23703;DHT22;12030;50.376;8.762;2023-05-10T04:54:13;13.80;99.90
23703;DHT22;12030;50.376;8.762;2023-05-10T04:56:39;13.80;99.90
23703;DHT22;12030;50.376;8.762;2023-05-10T04:59:06;13.90;99.90
23703;DHT22;12030;50.376;8.762;2023-05-10T05:01:32;13.90;99.90
23703;DHT22;12030;50.376;8.762;2023-05-10T05:03:57;13.90;99.90
23703;DHT22;12030;50.376;8.762;2023-05-10T05:06:23;13.90;99.90
23703;DHT22;12030;50.376;8.762;2023-05-10T05:08:50;14.00;99.90
23703;DHT22;12030;50.376;8.762;2023-05-10T05:11:16;14.00;99.90
23703;DHT22;12030;50.376;8.762;2023-05-10T05:13:41;14.10;99.90
23703;DHT22;12030;50.376;8.762;2023-05-10T05:16:07;14.10;99.90
23703;DHT22;12030;50.376;8.762;2023-05-10T05:18:32;14.20;99.90
23703;DHT22;12030;50.376;8.762;2023-05-10T05:20:58;14.20;99.90
23703;DHT22;12030;50.376;8.762;2023-05-10T05:23:23;14.30;99.90
23703;DHT22;12030;50.376;8.762;2023-05-10T05:25:51;14.30;99.90
23703;DHT22;12030;50.376;8.762;2023-05-10T05:28:17;14.40;99.90
23703;DHT22;12030;50.376;8.762;2023-05-10T05:30:43;14.30;99.90
23703;DHT22;12030;50.376;8.762;2023-05-10T05:33:08;14.30;99.90
23703;DHT22;12030;50.376;8.762;2023-05-10T05:35:34;14.30;99.90
23703;DHT22;12030;50.376;8.762;2023-05-10T05:37:59;14.30;99.90
23703;DHT22;12030;50.376;8.762;2023-05-10T05:40:25;14.20;99.90
23703;DHT22;12030;50.376;8.762;2023-05-10T05:42:50;14.30;99.90
23703;DHT22;12030;50.376;8.762;2023-05-10T05:45:16;14.30;99.90
23703;DHT22;12030;50.376;8.762;2023-05-10T05:47:41;14.00;99.90
23703;DHT22;12030;50.376;8.762;2023-05-10T05:50:07;14.30;99.90
23703;DHT22;12030;50.376;8.762;2023-05-10T05:52:33;14.30;99.90
23703;DHT22;12030;50.376;8.762;2023-05-10T05:54:59;14.20;99.90
23703;DHT22;12030;50.376;8.762;2023-05-10T05:57:24;14.30;99.90
23703;DHT22;12030;50.376;8.762;2023-05-10T05:59:51;14.20;99.90
23703;DHT22;12030;50.376;8.762;2023-05-10T06:02:17;14.30;99.90
23703;DHT22;12030;50.376;8.762;2023-05-10T06:04:43;14.30;99.90
23703;DHT22;12030;50.376;8.762;2023-05-10T06:07:08;14.40;99.90
23703;DHT22;12030;50.376;8.762;2023-05-10T06:09:34;14.40;99.90
23703;DHT22;12030;50.376;8.762;2023-05-10T06:11:59;14.40;99.90
23703;DHT22;12030;50.376;8.762;2023-05-10T06:14:25;14.40;99.90
23703;DHT22;12030;50.376;8.762;2023-05-10T06:16:50;14.30;99.90
23703;DHT22;12030;50.376;8.762;2023-05-10T06:19:16;14.30;99.90
23703;DHT22;12030;50.376;8.762;2023-05-10T06:21:41;14.40;99.90
23703;DHT22;12030;50.376;8.762;2023-05-10T06:24:07;14.50;99.90
23703;DHT22;12030;50.376;8.762;2023-05-10T06:26:33;14.50;99.90
23703;DHT22;12030;50.376;8.762;2023-05-10T06:28:59;14.60;99.90
23703;DHT22;12030;50.376;8.762;2023-05-10T06:31:24;14.60;99.90
23703;DHT22;12030;50.376;8.762;2023-05-10T06:33:50;14.80;99.90
23703;DHT22;12030;50.376;8.762;2023-05-10T06:36:16;14.90;99.90
23703;DHT22;12030;50.376;8.762;2023-05-10T06:38:41;14.80;99.90
23703;DHT22;12030;50.376;8.762;2023-05-10T06:41:07;14.90;99.90
23703;DHT22;12030;50.376;8.762;2023-05-10T06:43:32;14.90;99.90
23703;DHT22;12030;50.376;8.762;2023-05-10T06:45:58;15.00;99.90
23703;DHT22;12030;50.376;8.762;2023-05-10T06:48:23;14.90;99.90
23703;DHT22;12030;50.376;8.762;2023-05-10T06:50:49;15.00;99.90
23703;DHT22;12030;50.376;8.762;2023-05-10T06:53:14;15.00;99.90
23703;DHT22;12030;50.376;8.762;2023-05-10T06:55:40;15.10;99.90
23703;DHT22;12030;50.376;8.762;2023-05-10T06:58:06;15.20;99.90
23703;DHT22;12030;50.376;8.762;2023-05-10T07:00:32;15.20;99.90
23703;DHT22;12030;50.376;8.762;2023-05-10T07:02:57;15.20;99.90
23703;DHT22;12030;50.376;8.762;2023-05-10T07:05:23;15.30;99.90
23703;DHT22;12030;50.376;8.762;2023-05-10T07:07:49;15.40;99.90
23703;DHT22;12030;50.376;8.762;2023-05-10T07:10:15;15.50;99.90
23703;DHT22;12030;50.376;8.762;2023-05-10T07:12:40;15.60;99.90
23703;DHT22;12030;50.376;8.762;2023-05-10T07:15:06;15.60;99.90
23703;DHT22;12030;50.376;8.762;2023-05-10T07:17:32;15.60;99.90
23703;DHT22;12030;50.376;8.762;2023-05-10T07:19:58;15.60;99.90
23703;DHT22;12030;50.376;8.762;2023-05-10T07:22:25;15.60;99.90
23703;DHT22;12030;50.376;8.762;2023-05-10T07:24:50;15.60;99.90
23703;DHT22;12030;50.376;8.762;2023-05-10T07:27:16;15.60;99.90
23703;DHT22;12030;50.376;8.762;2023-05-10T07:29:41;15.70;99.90
23703;DHT22;12030;50.376;8.762;2023-05-10T07:32:07;15.70;99.90
23703;DHT22;12030;50.376;8.762;2023-05-10T07:34:32;15.90;99.90
23703;DHT22;12030;50.376;8.762;2023-05-10T07:36:58;15.90;99.90
23703;DHT22;12030;50.376;8.762;2023-05-10T07:39:25;15.90;99.90
23703;DHT22;12030;50.376;8.762;2023-05-10T07:41:51;16.00;99.90
23703;DHT22;12030;50.376;8.762;2023-05-10T07:44:16;16.10;99.90
23703;DHT22;12030;50.376;8.762;2023-05-10T07:46:44;16.10;99.90
23703;DHT22;12030;50.376;8.762;2023-05-10T07:49:09;16.10;99.90
23703;DHT22;12030;50.376;8.762;2023-05-10T07:51:35;16.00;99.90
23703;DHT22;12030;50.376;8.762;2023-05-10T07:54:01;16.10;99.90
23703;DHT22;12030;50.376;8.762;2023-05-10T07:56:29;16.10;99.90
23703;DHT22;12030;50.376;8.762;2023-05-10T07:59:04;16.10;99.90
23703;DHT22;12030;50.376;8.762;2023-05-10T08:01:32;16.10;99.90
23703;DHT22;12030;50.376;8.762;2023-05-10T08:03:58;16.10;99.90
23703;DHT22;12030;50.376;8.762;2023-05-10T08:06:24;16.00;99.90
23703;DHT22;12030;50.376;8.762;2023-05-10T08:08:51;16.00;99.90
23703;DHT22;12030;50.376;8.762;2023-05-10T08:11:19;15.90;99.90
23703;DHT22;12030;50.376;8.762;2023-05-10T08:13:46;16.00;99.90
23703;DHT22;12030;50.376;8.762;2023-05-10T08:16:12;16.00;99.90
23703;DHT22;12030;50.376;8.762;2023-05-10T08:18:38;16.00;99.90
23703;DHT22;12030;50.376;8.762;2023-05-10T08:21:04;16.00;99.90
23703;DHT22;12030;50.376;8.762;2023-05-10T08:23:29;15.90;99.90
23703;DHT22;12030;50.376;8.762;2023-05-10T08:25:55;15.90;99.90
23703;DHT22;12030;50.376;8.762;2023-05-10T08:28:20;15.90;99.90
23703;DHT22;12030;50.376;8.762;2023-05-10T08:30:46;15.90;99.90
23703;DHT22;12030;50.376;8.762;2023-05-10T08:33:12;15.90;99.90
23703;DHT22;12030;50.376;8.762;2023-05-10T08:35:37;15.90;99.90
23703;DHT22;12030;50.376;8.762;2023-05-10T08:38:03;16.00;99.90
23703;DHT22;12030;50.376;8.762;2023-05-10T08:40:28;16.10;99.90
23703;DHT22;12030;50.376;8.762;2023-05-10T08:43:06;16.10;99.90
23703;DHT22;12030;50.376;8.762;2023-05-10T08:45:33;16.20;99.90
23703;DHT22;12030;50.376;8.762;2023-05-10T08:48:02;16.20;99.90
23703;DHT22;12030;50.376;8.762;2023-05-10T08:50:27;16.20;99.90
23703;DHT22;12030;50.376;8.762;2023-05-10T08:52:55;16.10;99.90
23703;DHT22;12030;50.376;8.762;2023-05-10T08:55:23;16.10;99.90
23703;DHT22;12030;50.376;8.762;2023-05-10T08:57:49;16.10;99.90
23703;DHT22;12030;50.376;8.762;2023-05-10T09:00:16;16.10;99.90
23703;DHT22;12030;50.376;8.762;2023-05-10T09:02:42;16.00;99.90
23703;DHT22;12030;50.376;8.762;2023-05-10T09:05:08;15.90;99.90
23703;DHT22;12030;50.376;8.762;2023-05-10T09:07:35;15.90;99.90
23703;DHT22;12030;50.376;8.762;2023-05-10T09:10:02;15.80;99.90
23703;DHT22;12030;50.376;8.762;2023-05-10T09:12:27;15.90;99.90
23703;DHT22;12030;50.376;8.762;2023-05-10T09:14:54;15.90;99.90
23703;DHT22;12030;50.376;8.762;2023-05-10T09:17:23;15.90;99.90
23703;DHT22;12030;50.376;8.762;2023-05-10T09:19:49;15.80;99.90
23703;DHT22;12030;50.376;8.762;2023-05-10T09:22:14;15.70;99.90
23703;DHT22;12030;50.376;8.762;2023-05-10T09:24:42;15.60;99.90
23703;DHT22;12030;50.376;8.762;2023-05-10T09:27:10;15.60;99.90
23703;DHT22;12030;50.376;8.762;2023-05-10T09:29:43;15.60;99.90
23703;DHT22;12030;50.376;8.762;2023-05-10T09:32:08;15.70;99.90
23703;DHT22;12030;50.376;8.762;2023-05-10T09:34:34;15.80;99.90
23703;DHT22;12030;50.376;8.762;2023-05-10T09:37:05;16.00;99.90
23703;DHT22;12030;50.376;8.762;2023-05-10T09:39:34;16.10;99.90
23703;DHT22;12030;50.376;8.762;2023-05-10T09:42:02;16.10;99.90
23703;DHT22;12030;50.376;8.762;2023-05-10T09:44:29;16.00;99.90
23703;DHT22;12030;50.376;8.762;2023-05-10T09:46:55;16.20;99.90
23703;DHT22;12030;50.376;8.762;2023-05-10T09:49:23;16.40;99.90
23703;DHT22;12030;50.376;8.762;2023-05-10T09:52:03;16.70;99.90
23703;DHT22;12030;50.376;8.762;2023-05-10T09:54:29;16.90;99.90
23703;DHT22;12030;50.376;8.762;2023-05-10T09:56:55;17.10;99.90
23703;DHT22;12030;50.376;8.762;2023-05-10T09:59:20;17.30;99.90
23703;DHT22;12030;50.376;8.762;2023-05-10T10:01:53;17.40;99.90
23703;DHT22;12030;50.376;8.762;2023-05-10T10:04:20;17.50;99.90
23703;DHT22;12030;50.376;8.762;2023-05-10T10:06:47;17.70;99.90
23703;DHT22;12030;50.376;8.762;2023-05-10T10:09:23;17.60;99.90
23703;DHT22;12030;50.376;8.762;2023-05-10T10:11:49;17.80;99.90
23703;DHT22;12030;50.376;8.762;2023-05-10T10:14:18;17.90;99.90
23703;DHT22;12030;50.376;8.762;2023-05-10T10:16:44;18.10;99.90
23703;DHT22;12030;50.376;8.762;2023-05-10T10:19:10;18.20;99.90
23703;DHT22;12030;50.376;8.762;2023-05-10T10:21:35;18.10;99.90
23703;DHT22;12030;50.376;8.762;2023-05-10T10:24:01;18.20;99.90
23703;DHT22;12030;50.376;8.762;2023-05-10T10:26:27;18.30;99.90
23703;DHT22;12030;50.376;8.762;2023-05-10T10:29:15;18.40;99.90
23703;DHT22;12030;50.376;8.762;2023-05-10T10:34:30;18.70;99.90
23703;DHT22;12030;50.376;8.762;2023-05-10T10:36:57;19.00;99.90
23703;DHT22;12030;50.376;8.762;2023-05-10T10:39:24;19.10;99.90
23703;DHT22;12030;50.376;8.762;2023-05-10T10:41:56;19.10;99.90
23703;DHT22;12030;50.376;8.762;2023-05-10T10:47:08;19.10;99.90
23703;DHT22;12030;50.376;8.762;2023-05-10T10:52:31;19.20;99.90
23703;DHT22;12030;50.376;8.762;2023-05-10T10:57:59;19.90;99.90
23703;DHT22;12030;50.376;8.762;2023-05-10T11:00:35;20.00;99.90
23703;DHT22;12030;50.376;8.762;2023-05-10T11:03:12;20.30;99.90
23703;DHT22;12030;50.376;8.762;2023-05-10T11:05:48;20.40;99.90
23703;DHT22;12030;50.376;8.762;2023-05-10T11:08:26;20.00;99.90
23703;DHT22;12030;50.376;8.762;2023-05-10T11:13:34;18.90;99.90
23703;DHT22;12030;50.376;8.762;2023-05-10T11:16:20;18.50;99.90
23703;DHT22;12030;50.376;8.762;2023-05-10T11:18:59;18.20;99.90
23703;DHT22;12030;50.376;8.762;2023-05-10T11:21:26;17.90;99.90
23703;DHT22;12030;50.376;8.762;2023-05-10T11:23:55;17.60;99.90
23703;DHT22;12030;50.376;8.762;2023-05-10T11:26:23;17.40;99.90
23703;DHT22;12030;50.376;8.762;2023-05-10T11:28:52;17.30;99.90
23703;DHT22;12030;50.376;8.762;2023-05-10T11:31:19;16.90;99.90
23703;DHT22;12030;50.376;8.762;2023-05-10T11:33:50;16.80;99.90
23703;DHT22;12030;50.376;8.762;2023-05-10T11:36:21;16.80;99.90
23703;DHT22;12030;50.376;8.762;2023-05-10T11:38:47;16.90;99.90
23703;DHT22;12030;50.376;8.762;2023-05-10T11:41:13;16.90;99.90
23703;DHT22;12030;50.376;8.762;2023-05-10T11:43:39;16.90;99.90
23703;DHT22;12030;50.376;8.762;2023-05-10T11:46:10;17.00;99.90
23703;DHT22;12030;50.376;8.762;2023-05-10T11:48:36;16.90;99.90
23703;DHT22;12030;50.376;8.762;2023-05-10T11:51:03;17.00;99.90
23703;DHT22;12030;50.376;8.762;2023-05-10T11:53:32;17.00;99.90
23703;DHT22;12030;50.376;8.762;2023-05-10T11:56:06;17.00;99.90
23703;DHT22;12030;50.376;8.762;2023-05-10T11:58:32;17.00;99.90
23703;DHT22;12030;50.376;8.762;2023-05-10T12:00:59;17.10;99.90
23703;DHT22;12030;50.376;8.762;2023-05-10T12:03:25;17.20;99.90
23703;DHT22;12030;50.376;8.762;2023-05-10T12:05:51;17.30;99.90
23703;DHT22;12030;50.376;8.762;2023-05-10T12:08:25;17.40;99.90
23703;DHT22;12030;50.376;8.762;2023-05-10T12:10:51;17.50;99.90
23703;DHT22;12030;50.376;8.762;2023-05-10T12:13:18;17.70;99.90
23703;DHT22;12030;50.376;8.762;2023-05-10T12:15:44;17.80;99.90
23703;DHT22;12030;50.376;8.762;2023-05-10T12:18:11;17.90;99.90
23703;DHT22;12030;50.376;8.762;2023-05-10T12:20:37;17.90;99.90
23703;DHT22;12030;50.376;8.762;2023-05-10T12:23:03;17.80;99.90
23703;DHT22;12030;50.376;8.762;2023-05-10T12:25:33;17.80;99.90
23703;DHT22;12030;50.376;8.762;2023-05-10T12:28:02;17.80;99.90
23703;DHT22;12030;50.376;8.762;2023-05-10T12:30:29;17.50;99.90
23703;DHT22;12030;50.376;8.762;2023-05-10T12:33:00;17.40;99.90
23703;DHT22;12030;50.376;8.762;2023-05-10T12:35:27;17.30;99.90
23703;DHT22;12030;50.376;8.762;2023-05-10T12:37:54;17.20;99.90
23703;DHT22;12030;50.376;8.762;2023-05-10T12:40:20;17.00;99.90
23703;DHT22;12030;50.376;8.762;2023-05-10T12:42:45;16.90;99.90
23703;DHT22;12030;50.376;8.762;2023-05-10T12:45:11;16.80;99.90
23703;DHT22;12030;50.376;8.762;2023-05-10T12:47:37;16.70;99.90
23703;DHT22;12030;50.376;8.762;2023-05-10T12:50:03;16.70;99.90
23703;DHT22;12030;50.376;8.762;2023-05-10T12:52:30;16.60;99.90
23703;DHT22;12030;50.376;8.762;2023-05-10T12:54:56;16.60;99.90
23703;DHT22;12030;50.376;8.762;2023-05-10T12:57:22;16.60;99.90
23703;DHT22;12030;50.376;8.762;2023-05-10T12:59:48;16.60;99.90
23703;DHT22;12030;50.376;8.762;2023-05-10T13:02:13;16.80;99.90
23703;DHT22;12030;50.376;8.762;2023-05-10T13:04:40;16.90;99.90
23703;DHT22;12030;50.376;8.762;2023-05-10T13:07:06;17.00;99.90
23703;DHT22;12030;50.376;8.762;2023-05-10T13:09:32;17.00;99.90
23703;DHT22;12030;50.376;8.762;2023-05-10T13:11:57;17.10;99.90
23703;DHT22;12030;50.376;8.762;2023-05-10T13:14:25;17.20;99.90
23703;DHT22;12030;50.376;8.762;2023-05-10T13:16:50;17.30;99.90
23703;DHT22;12030;50.376;8.762;2023-05-10T13:19:16;17.30;99.90
23703;DHT22;12030;50.376;8.762;2023-05-10T13:21:42;17.50;99.90
23703;DHT22;12030;50.376;8.762;2023-05-10T13:24:09;17.50;99.90
23703;DHT22;12030;50.376;8.762;2023-05-10T13:26:36;17.60;99.90
23703;DHT22;12030;50.376;8.762;2023-05-10T13:29:02;17.60;99.90
23703;DHT22;12030;50.376;8.762;2023-05-10T13:31:28;17.50;99.90
23703;DHT22;12030;50.376;8.762;2023-05-10T13:33:53;17.50;99.90
23703;DHT22;12030;50.376;8.762;2023-05-10T13:36:19;17.50;99.90
23703;DHT22;12030;50.376;8.762;2023-05-10T13:38:44;17.40;99.90
23703;DHT22;12030;50.376;8.762;2023-05-10T13:41:10;17.60;99.90
23703;DHT22;12030;50.376;8.762;2023-05-10T13:43:36;17.60;99.90
23703;DHT22;12030;50.376;8.762;2023-05-10T13:46:02;17.60;99.90
23703;DHT22;12030;50.376;8.762;2023-05-10T13:48:28;17.60;99.90
23703;DHT22;12030;50.376;8.762;2023-05-10T13:50:53;17.70;99.90
23703;DHT22;12030;50.376;8.762;2023-05-10T13:53:19;17.70;99.90
23703;DHT22;12030;50.376;8.762;2023-05-10T13:55:44;17.70;99.90
23703;DHT22;12030;50.376;8.762;2023-05-10T13:58:10;17.60;99.90
23703;DHT22;12030;50.376;8.762;2023-05-10T14:00:36;17.60;99.90
23703;DHT22;12030;50.376;8.762;2023-05-10T14:03:01;17.60;99.90
23703;DHT22;12030;50.376;8.762;2023-05-10T14:05:27;17.60;99.90
23703;DHT22;12030;50.376;8.762;2023-05-10T14:07:53;17.60;99.90
23703;DHT22;12030;50.376;8.762;2023-05-10T14:10:19;17.60;99.90
23703;DHT22;12030;50.376;8.762;2023-05-10T14:12:44;17.50;99.90
23703;DHT22;12030;50.376;8.762;2023-05-10T14:15:10;17.40;99.90
23703;DHT22;12030;50.376;8.762;2023-05-10T14:17:36;17.40;99.90
23703;DHT22;12030;50.376;8.762;2023-05-10T14:20:02;17.30;99.90
23703;DHT22;12030;50.376;8.762;2023-05-10T14:22:29;17.30;99.90
23703;DHT22;12030;50.376;8.762;2023-05-10T14:24:54;17.40;99.90
23703;DHT22;12030;50.376;8.762;2023-05-10T14:27:20;17.30;99.90
23703;DHT22;12030;50.376;8.762;2023-05-10T14:29:47;17.20;99.90
23703;DHT22;12030;50.376;8.762;2023-05-10T14:32:13;17.30;99.90
23703;DHT22;12030;50.376;8.762;2023-05-10T14:34:38;17.40;99.90
23703;DHT22;12030;50.376;8.762;2023-05-10T14:37:04;17.30;99.90
23703;DHT22;12030;50.376;8.762;2023-05-10T14:39:30;17.30;99.90
23703;DHT22;12030;50.376;8.762;2023-05-10T14:41:56;17.20;99.90
23703;DHT22;12030;50.376;8.762;2023-05-10T14:44:21;17.10;99.90
23703;DHT22;12030;50.376;8.762;2023-05-10T14:46:47;16.90;99.90
23703;DHT22;12030;50.376;8.762;2023-05-10T14:49:13;16.70;99.90
23703;DHT22;12030;50.376;8.762;2023-05-10T14:51:39;16.60;99.90
23703;DHT22;12030;50.376;8.762;2023-05-10T14:54:04;16.40;99.90
23703;DHT22;12030;50.376;8.762;2023-05-10T14:56:31;16.20;99.90
23703;DHT22;12030;50.376;8.762;2023-05-10T14:58:56;16.30;99.90
23703;DHT22;12030;50.376;8.762;2023-05-10T15:01:22;16.40;99.90
23703;DHT22;12030;50.376;8.762;2023-05-10T15:03:47;16.50;99.90
23703;DHT22;12030;50.376;8.762;2023-05-10T15:06:14;16.40;99.90
23703;DHT22;12030;50.376;8.762;2023-05-10T15:08:41;16.60;99.90
23703;DHT22;12030;50.376;8.762;2023-05-10T15:11:06;16.80;99.90
23703;DHT22;12030;50.376;8.762;2023-05-10T15:13:32;16.90;99.90
23703;DHT22;12030;50.376;8.762;2023-05-10T15:15:57;17.10;99.90
23703;DHT22;12030;50.376;8.762;2023-05-10T15:18:23;17.30;99.90
23703;DHT22;12030;50.376;8.762;2023-05-10T15:20:48;17.40;99.90
23703;DHT22;12030;50.376;8.762;2023-05-10T15:23:14;17.70;99.90
23703;DHT22;12030;50.376;8.762;2023-05-10T15:25:39;18.00;99.90
23703;DHT22;12030;50.376;8.762;2023-05-10T15:28:05;18.20;99.90
23703;DHT22;12030;50.376;8.762;2023-05-10T15:30:30;18.40;99.90
23703;DHT22;12030;50.376;8.762;2023-05-10T15:32:56;18.30;99.90
23703;DHT22;12030;50.376;8.762;2023-05-10T15:35:22;18.60;99.90
23703;DHT22;12030;50.376;8.762;2023-05-10T15:37:48;18.90;99.90
23703;DHT22;12030;50.376;8.762;2023-05-10T15:40:14;19.20;99.90
23703;DHT22;12030;50.376;8.762;2023-05-10T15:42:40;19.40;99.90
23703;DHT22;12030;50.376;8.762;2023-05-10T15:45:06;19.50;99.90
23703;DHT22;12030;50.376;8.762;2023-05-10T15:47:31;19.40;99.90
23703;DHT22;12030;50.376;8.762;2023-05-10T15:49:58;19.30;99.90
23703;DHT22;12030;50.376;8.762;2023-05-10T15:52:23;19.20;99.90
23703;DHT22;12030;50.376;8.762;2023-05-10T15:54:49;19.20;99.90